M.o.m. — WDE6166 — position and weather

sailwx.info

Track history (hours):
 
Tides and Currents Weather Stations Pressure Air Temp Water Temp Dewpoint Dewpoint Depression Visibility Wind Speed Wind Dir Waves Ship Positions

M.o.m.

Owner: Anderson, Carl W, Lopez Island, WA. More information available from US FCC via Universal Licensing System and Coast Guard Vessel Documentation Center.

Last reported at 2015-Sep-18 21:32 UTC. Time now 2016-Feb-14 23:12 UTC.
Position N 48°31' W 122°55'.
Warning: this ship's position is months out of date.

Length 11 m.

Type: Sailing vessel. MMSI: 367376770.

Date/timePositionNaut miles runAvg speedWind from/ knotsBaromVisibWave heightAir tempDewpointWater temp
2015-Sep-18 21:32N 48°31' W 122°55'0 0.1
2015-Sep-18 20:32N 48°31' W 122°55'3 0.2
2015-Sep-18 02:12N 48°33' W 122°57'0 0.0
2015-Sep-18 01:24N 48°33' W 122°57'0 0.1
2015-Sep-18 00:32N 48°33' W 122°57'3 2.8
2015-Sep-17 23:33N 48°31' W 122°55'0 0.0
2015-Sep-17 22:33N 48°31' W 122°55'0 0.0
2015-Sep-17 21:27N 48°31' W 122°55'0 0.0
2015-Sep-17 20:30N 48°31' W 122°55'1 1.1
2015-Sep-17 19:33N 48°31' W 122°56'3 0.2
2015-Sep-17 01:33N 48°29' W 123°00'0 0.0
2015-Sep-17 00:30N 48°29' W 123°00'0 0.0
2015-Sep-16 23:33N 48°29' W 123°00'0 0.0
2015-Sep-16 22:32N 48°29' W 123°00'1 0.6
2015-Sep-16 21:33N 48°28' W 122°60'2 0.8
2015-Sep-16 19:29N 48°27' W 122°60'2 2.5
2015-Sep-16 18:33N 48°28' W 122°57'3 0.1
2015-Sep-15 22:31N 48°31' W 122°55'0 0.0
2015-Sep-15 21:31N 48°31' W 122°55'1 1.1
2015-Sep-15 20:33N 48°31' W 122°56'14 5.8
2015-Sep-15 18:11N 48°17' W 122°53'0 0.0
2015-Sep-15 18:11N 48°17' W 122°53'5 7.1
2015-Sep-15 17:24N 48°12' W 122°49'24 1.0
2015-Sep-14 17:05N 47°52' W 122°30'1 5.9
2015-Sep-14 16:58N 47°51' W 122°29'14 0.7
2015-Sep-13 20:28N 47°38' W 122°35'7 1.7
2015-Sep-13 16:30N 47°32' W 122°30'9 6.6
2015-Sep-13 15:04N 47°23' W 122°32'3 0.3
2015-Sep-13 03:05N 47°22' W 122°27'0 0.0
2015-Sep-13 02:32N 47°22' W 122°27'0 0.0
2015-Sep-13 01:29N 47°22' W 122°27'0 0.1
2015-Sep-13 00:30N 47°22' W 122°27'0 0.0
2015-Sep-12 23:33N 47°22' W 122°27'0 0.0
2015-Sep-12 22:33N 47°22' W 122°27'2 1.5
2015-Sep-12 21:33N 47°22' W 122°25'5 5.2
2015-Sep-12 20:33N 47°27' W 122°23'7 6.5
2015-Sep-12 19:33N 47°33' W 122°25'2 6.0
2015-Sep-12 19:09N 47°35' W 122°26'4 5.9
2015-Sep-12 18:33N 47°39' W 122°26'0 5.6
2015-Sep-12 18:29N 47°39' W 122°26'2 2.1
2015-Sep-12 17:32N 47°41' W 122°24'0 0.0
2015-Sep-12 17:29N 47°41' W 122°24'0 0.0
2015-Sep-11 15:42N 47°41' W 122°24'0 3.1
2015-Sep-11 15:33N 47°41' W 122°25'0 4.8
2015-Sep-11 15:32N 47°40' W 122°25'6 5.8
2015-Sep-11 14:33N 47°36' W 122°30'0 4.4
2015-Sep-11 14:32N 47°36' W 122°30'0 0.0
2015-Sep-10 23:30N 47°36' W 122°29'0 6.1
2015-Sep-10 23:26N 47°36' W 122°29'4 4.9
2015-Sep-10 22:33N 47°40' W 122°26'0 3.4
2015-Sep-10 22:31N 47°40' W 122°26'2 1.6
2015-Sep-10 21:33N 47°41' W 122°24'0 0.0
2015-Sep-10 21:21N 47°41' W 122°24'0 0.0
2015-Sep-10 20:33N 47°41' W 122°24'0 0.0
2015-Sep-10 20:21N 47°41' W 122°24'0 0.1
2015-Sep-10 19:33N 47°41' W 122°24'0 0.8
2015-Sep-10 19:30N 47°41' W 122°24'0 0.0
2015-Sep-10 18:33N 47°41' W 122°24'0 0.0
2015-Sep-10 18:30N 47°41' W 122°24'0 0.0
2015-Sep-10 17:33N 47°41' W 122°24'0 0.2
2015-Sep-10 17:16N 47°41' W 122°24'4 5.3
2015-Sep-10 16:33N 47°42' W 122°30'0 5.3
2015-Sep-10 16:31N 47°42' W 122°30'1 0.1
2015-Sep-09 23:35N 47°43' W 122°32'0 5.6
2015-Sep-09 23:33N 47°43' W 122°31'0 5.0
2015-Sep-09 23:30N 47°43' W 122°31'3 2.7
2015-Sep-09 22:33N 47°42' W 122°27'0 3.6
2015-Sep-09 22:30N 47°42' W 122°27'1 1.4
2015-Sep-09 21:33N 47°41' W 122°25'0 0.7
2015-Sep-09 21:29N 47°42' W 122°25'  
Track history (hours):
 
Tides and Currents Weather Stations Pressure Air Temp Water Temp Dewpoint Dewpoint Depression Visibility Wind Speed Wind Dir Waves Ship Positions

M.o.m.

Owner: Anderson, Carl W, Lopez Island, WA. More information available from US FCC via Universal Licensing System and Coast Guard Vessel Documentation Center.

Last reported at 2015-Sep-18 21:32 UTC. Time now 2016-Feb-14 23:12 UTC.
Position N 48°31' W 122°55'.
Warning: this ship's position is months out of date.

Length 11 m.

Type: Sailing vessel. MMSI: 367376770.

Date/timePositionNaut miles runAvg speedWind from/ knotsBaromVisibWave heightAir tempDewpointWater temp
2015-Sep-18 21:32N 48°31' W 122°55'0 0.1
2015-Sep-18 20:32N 48°31' W 122°55'3 0.2
2015-Sep-18 02:12N 48°33' W 122°57'0 0.0
2015-Sep-18 01:24N 48°33' W 122°57'0 0.1
2015-Sep-18 00:32N 48°33' W 122°57'3 2.8
2015-Sep-17 23:33N 48°31' W 122°55'0 0.0
2015-Sep-17 22:33N 48°31' W 122°55'0 0.0
2015-Sep-17 21:27N 48°31' W 122°55'0 0.0
2015-Sep-17 20:30N 48°31' W 122°55'1 1.1
2015-Sep-17 19:33N 48°31' W 122°56'3 0.2
2015-Sep-17 01:33N 48°29' W 123°00'0 0.0
2015-Sep-17 00:30N 48°29' W 123°00'0 0.0
2015-Sep-16 23:33N 48°29' W 123°00'0 0.0
2015-Sep-16 22:32N 48°29' W 123°00'1 0.6
2015-Sep-16 21:33N 48°28' W 122°60'2 0.8
2015-Sep-16 19:29N 48°27' W 122°60'2 2.5
2015-Sep-16 18:33N 48°28' W 122°57'3 0.1
2015-Sep-15 22:31N 48°31' W 122°55'0 0.0
2015-Sep-15 21:31N 48°31' W 122°55'1 1.1
2015-Sep-15 20:33N 48°31' W 122°56'14 5.8
2015-Sep-15 18:11N 48°17' W 122°53'0 0.0
2015-Sep-15 18:11N 48°17' W 122°53'5 7.1
2015-Sep-15 17:24N 48°12' W 122°49'24 1.0
2015-Sep-14 17:05N 47°52' W 122°30'1 5.9
2015-Sep-14 16:58N 47°51' W 122°29'14 0.7
2015-Sep-13 20:28N 47°38' W 122°35'7 1.7
2015-Sep-13 16:30N 47°32' W 122°30'9 6.6
2015-Sep-13 15:04N 47°23' W 122°32'3 0.3
2015-Sep-13 03:05N 47°22' W 122°27'0 0.0
2015-Sep-13 02:32N 47°22' W 122°27'0 0.0
2015-Sep-13 01:29N 47°22' W 122°27'0 0.1
2015-Sep-13 00:30N 47°22' W 122°27'0 0.0
2015-Sep-12 23:33N 47°22' W 122°27'0 0.0
2015-Sep-12 22:33N 47°22' W 122°27'2 1.5
2015-Sep-12 21:33N 47°22' W 122°25'5 5.2
2015-Sep-12 20:33N 47°27' W 122°23'7 6.5
2015-Sep-12 19:33N 47°33' W 122°25'2 6.0
2015-Sep-12 19:09N 47°35' W 122°26'4 5.9
2015-Sep-12 18:33N 47°39' W 122°26'0 5.6
2015-Sep-12 18:29N 47°39' W 122°26'2 2.1
2015-Sep-12 17:32N 47°41' W 122°24'0 0.0
2015-Sep-12 17:29N 47°41' W 122°24'0 0.0
2015-Sep-11 15:42N 47°41' W 122°24'0 3.1
2015-Sep-11 15:33N 47°41' W 122°25'0 4.8
2015-Sep-11 15:32N 47°40' W 122°25'6 5.8
2015-Sep-11 14:33N 47°36' W 122°30'0 4.4
2015-Sep-11 14:32N 47°36' W 122°30'0 0.0
2015-Sep-10 23:30N 47°36' W 122°29'0 6.1
2015-Sep-10 23:26N 47°36' W 122°29'4 4.9
2015-Sep-10 22:33N 47°40' W 122°26'0 3.4
2015-Sep-10 22:31N 47°40' W 122°26'2 1.6
2015-Sep-10 21:33N 47°41' W 122°24'0 0.0
2015-Sep-10 21:21N 47°41' W 122°24'0 0.0
2015-Sep-10 20:33N 47°41' W 122°24'0 0.0
2015-Sep-10 20:21N 47°41' W 122°24'0 0.1
2015-Sep-10 19:33N 47°41' W 122°24'0 0.8
2015-Sep-10 19:30N 47°41' W 122°24'0 0.0
2015-Sep-10 18:33N 47°41' W 122°24'0 0.0
2015-Sep-10 18:30N 47°41' W 122°24'0 0.0
2015-Sep-10 17:33N 47°41' W 122°24'0 0.2
2015-Sep-10 17:16N 47°41' W 122°24'4 5.3
2015-Sep-10 16:33N 47°42' W 122°30'0 5.3
2015-Sep-10 16:31N 47°42' W 122°30'1 0.1
2015-Sep-09 23:35N 47°43' W 122°32'0 5.6
2015-Sep-09 23:33N 47°43' W 122°31'0 5.0
2015-Sep-09 23:30N 47°43' W 122°31'3 2.7
2015-Sep-09 22:33N 47°42' W 122°27'0 3.6
2015-Sep-09 22:30N 47°42' W 122°27'1 1.4
2015-Sep-09 21:33N 47°41' W 122°25'0 0.7
2015-Sep-09 21:29N 47°42' W 122°25'  

Dump ship's entire track history